Terminal Aerodrome Forecast
Issued by NWS

Home | Current Version | Previous Version | Text Only | Print | Product List | Glossary On
Versions: 1 2 3 4 5 6 7 8 9 10 11 12 13 14 15 16 17 18 19 20 21 22 23 24 25 26 27 28 29 30 31 32 33 34
000
FTUS43 KOAX 251734
TAFBFF
TAF
KBFF 251734Z 2518/2618 31010KT 6SM -RA BR SCT025 BKN050
      TEMPO 2518/2522 4SM -RA BR BKN025
     FM252200 33008KT P6SM VCSH BKN050
     FM260600 33005KT P6SM SCT007 OVC015=

USA.gov is the U.S. government's official web portal to all federal, state and local government web resources and services.